Time;durP1;ratioP1;P1;durP2;ratioP2;P2;SDS_P1;SDS_P2;PMS_P1;PMS_P2;Temp;Humidity;BMP_temperature;BMP_pressure;BME280_temperature;BME280_humidity;BME280_pressure;Samples;Min_cycle;Max_cycle;Signal;HPM_P1;HPM_P2
2022/02/28 00:02:27;;;;;;;8.73;3.53;;;;;;;-1.82;69.68;101112.63;1783553;78;21038;-52
2022/02/28 00:04:53;;;;;;;12.37;4.80;;;;;;;-1.81;69.71;101111.78;1785921;78;21021;-53
2022/02/28 00:07:20;;;;;;;9.17;3.07;;;;;;;-1.81;69.81;101110.89;1807633;78;21249;-52
2022/02/28 00:09:48;;;;;;;8.00;2.37;;;;;;;-1.79;69.87;101111.40;1812338;78;20949;-52
2022/02/28 00:12:15;;;;;;;7.93;2.93;;;;;;;-1.79;69.97;101111.40;1809717;78;21425;-52
2022/02/28 00:14:42;;;;;;;12.17;3.83;;;;;;;-1.76;70.12;101111.45;1783527;78;21446;-53
2022/02/28 00:17:09;;;;;;;9.83;2.83;;;;;;;-1.71;70.25;101116.84;1792601;78;21435;-53
2022/02/28 00:19:35;;;;;;;7.10;2.63;;;;;;;-1.68;70.36;101108.98;1779963;78;21109;-53
2022/02/28 00:22:02;;;;;;;9.53;2.70;;;;;;;-1.63;70.43;101107.35;1807325;78;21069;-52
2022/02/28 00:24:29;;;;;;;7.67;2.70;;;;;;;-1.60;70.42;101102.12;1782438;78;21073;-53
2022/02/28 00:26:55;;;;;;;7.67;2.20;;;;;;;-1.61;70.50;101103.86;1809517;78;21625;-52
2022/02/28 00:29:23;;;;;;;9.53;3.17;;;;;;;-1.58;70.57;101102.63;1773258;80;21337;-52
2022/02/28 00:31:49;;;;;;;9.47;3.40;;;;;;;-1.54;70.76;101105.81;1809423;77;21521;-53
2022/02/28 00:34:17;;;;;;;8.97;3.53;;;;;;;-1.52;70.74;101109.78;1803596;78;21451;-52
2022/02/28 00:36:44;;;;;;;5.50;2.50;;;;;;;-1.49;70.81;101110.28;1801417;78;21088;-52
2022/02/28 00:39:10;;;;;;;5.97;2.77;;;;;;;-1.47;70.94;101105.51;1802815;78;21060;-52
2022/02/28 00:41:38;;;;;;;7.23;2.70;;;;;;;-1.43;70.99;101102.48;1804015;78;21009;-52
2022/02/28 00:44:05;;;;;;;11.13;2.90;;;;;;;-1.38;71.11;101104.81;1799173;78;22623;-52
2022/02/28 00:46:32;;;;;;;6.37;2.43;;;;;;;-1.34;71.13;101106.22;1790718;78;21390;-52
2022/02/28 00:48:59;;;;;;;5.40;2.47;;;;;;;-1.30;71.19;101099.27;1786119;78;20850;-52
2022/02/28 00:51:26;;;;;;;6.37;2.53;;;;;;;-1.28;71.25;101106.38;1800305;78;21419;-51
2022/02/28 00:53:52;;;;;;;7.20;2.00;;;;;;;-1.26;71.31;101107.69;1788718;78;21456;-52
2022/02/28 00:56:19;;;;;;;5.47;2.20;;;;;;;-1.25;71.42;101101.55;1784451;79;21321;-52
2022/02/28 00:58:47;;;;;;;6.23;2.60;;;;;;;-1.25;71.50;101109.48;1799779;78;20914;-52
2022/02/28 01:01:13;;;;;;;8.27;2.30;;;;;;;-1.26;71.54;101105.95;1804014;78;20914;-52
2022/02/28 01:03:39;;;;;;;7.43;1.90;;;;;;;-1.26;71.53;101112.98;1775207;79;21478;-52
2022/02/28 01:06:06;;;;;;;7.80;2.23;;;;;;;-1.27;71.42;101113.83;1807301;78;20905;-52
2022/02/28 01:08:32;;;;;;;7.73;2.73;;;;;;;-1.29;71.32;101112.50;1782074;78;21143;-51
2022/02/28 01:10:59;;;;;;;8.37;1.93;;;;;;;-1.31;71.19;101112.89;1786534;79;20910;-52
2022/02/28 01:13:26;;;;;;;5.07;1.87;;;;;;;-1.36;71.09;101111.03;1788003;79;21009;-52
2022/02/28 01:15:53;;;;;;;6.20;1.93;;;;;;;-1.40;71.12;101111.37;1785209;78;21047;-52
2022/02/28 01:18:19;;;;;;;5.43;2.20;;;;;;;-1.42;71.09;101117.05;1785160;79;20969;-52
2022/02/28 01:20:45;;;;;;;9.50;2.87;;;;;;;-1.46;70.94;101115.64;1783539;78;21117;-52
2022/02/28 01:23:12;;;;;;;6.70;2.73;;;;;;;-1.50;70.99;101108.07;1788505;79;21080;-51
2022/02/28 01:25:38;;;;;;;6.30;2.13;;;;;;;-1.55;71.01;101105.77;1788910;79;21355;-52
2022/02/28 01:28:05;;;;;;;8.50;3.00;;;;;;;-1.57;71.07;101113.65;1805723;77;22005;-52
2022/02/28 01:30:31;;;;;;;7.57;2.13;;;;;;;-1.58;71.14;101114.50;1803749;78;21214;-51
2022/02/28 01:32:58;;;;;;;5.00;1.87;;;;;;;-1.58;71.08;101115.83;1803855;78;21133;-50
2022/02/28 01:35:24;;;;;;;5.63;2.27;;;;;;;-1.59;71.10;101114.47;1754874;80;21037;-52
2022/02/28 01:37:52;;;;;;;4.77;1.67;;;;;;;-1.60;71.08;101118.85;1781839;78;21057;-51
2022/02/28 01:40:19;;;;;;;4.70;1.80;;;;;;;-1.62;71.01;101115.73;1783737;79;21064;-51
2022/02/28 01:42:45;;;;;;;5.10;2.40;;;;;;;-1.63;70.88;101112.63;1748297;81;21622;-51
2022/02/28 01:45:15;;;;;;;3.13;1.63;;;;;;;-1.67;70.94;101111.66;1777980;78;21108;-51
2022/02/28 01:47:43;;;;;;;4.63;1.77;;;;;;;-1.68;70.92;101112.51;1780331;78;20901;-51
2022/02/28 01:50:10;;;;;;;5.97;2.10;;;;;;;-1.71;70.96;101112.46;1783784;78;21115;-51
2022/02/28 01:52:36;;;;;;;5.73;2.33;;;;;;;-1.73;70.89;101116.81;1777952;78;21040;-51
2022/02/28 01:55:05;;;;;;;5.77;2.37;;;;;;;-1.79;70.93;101108.77;1777747;78;21064;-51
2022/02/28 01:57:32;;;;;;;6.90;2.10;;;;;;;-1.82;71.05;101106.46;1782510;78;21138;-51
2022/02/28 01:59:58;;;;;;;6.10;2.73;;;;;;;-1.85;71.00;101109.91;1780086;78;21055;-51
2022/02/28 02:02:26;;;;;;;4.77;1.97;;;;;;;-1.89;71.04;101110.72;1778342;79;21051;-50
2022/02/28 02:04:52;;;;;;;5.57;2.47;;;;;;;-1.91;70.96;101108.03;1777764;78;21052;-51
2022/02/28 02:07:19;;;;;;;7.03;2.33;;;;;;;-1.95;70.90;101106.16;1761725;80;21028;-50
2022/02/28 02:09:47;;;;;;;6.43;2.00;;;;;;;-2.00;70.79;101107.81;1783956;80;21405;-52
2022/02/28 02:12:13;;;;;;;3.53;2.10;;;;;;;-2.03;70.86;101106.41;1749692;80;21068;-52
2022/02/28 02:14:40;;;;;;;5.70;2.43;;;;;;;-2.07;71.01;101106.31;1751387;80;21418;-51
2022/02/28 02:17:06;;;;;;;8.37;2.23;;;;;;;-2.09;71.10;101109.34;1783913;78;21469;-51
2022/02/28 02:19:36;;;;;;;4.00;1.90;;;;;;;-2.12;70.92;101111.46;1748884;81;20978;-51
2022/02/28 02:22:06;;;;;;;4.57;1.87;;;;;;;-2.16;70.65;101120.60;1730715;80;22495;-52
2022/02/28 02:24:33;;;;;;;4.40;1.77;;;;;;;-2.21;70.80;101124.88;1760800;79;21045;-51
2022/02/28 02:26:59;;;;;;;7.57;2.23;;;;;;;-2.25;70.64;101125.64;1762773;80;20925;-51
2022/02/28 02:29:25;;;;;;;5.03;1.10;;;;;;;-2.29;70.61;101122.02;1757643;80;21437;-53
2022/02/28 02:31:52;;;;;;;6.73;1.63;;;;;;;-2.35;70.55;101124.09;1762544;79;21100;-51
2022/02/28 02:34:19;;;;;;;4.47;1.93;;;;;;;-2.37;70.64;101122.26;1767630;79;21110;-52
2022/02/28 02:36:45;;;;;;;9.83;2.43;;;;;;;-2.40;70.64;101123.09;1781271;79;21455;-51
2022/02/28 02:39:11;;;;;;;5.87;1.97;;;;;;;-2.42;70.60;101131.81;1772256;79;21086;-51
2022/02/28 02:41:37;;;;;;;5.57;2.67;;;;;;;-2.44;70.68;101128.23;1777913;79;21116;-52
2022/02/28 02:44:05;;;;;;;5.03;1.73;;;;;;;-2.45;70.68;101126.02;1776711;79;21108;-51
2022/02/28 02:46:32;;;;;;;10.13;2.37;;;;;;;-2.47;70.69;101125.54;1779870;79;21162;-51
2022/02/28 02:49:03;;;;;;;6.37;1.93;;;;;;;-2.48;70.63;101128.59;1778739;79;21405;-51
2022/02/28 02:51:29;;;;;;;6.30;2.17;;;;;;;-2.50;70.72;101130.72;1782868;78;20911;-53
2022/02/28 02:53:57;;;;;;;7.67;2.90;;;;;;;-2.52;70.78;101130.67;1748568;79;20986;-49
2022/02/28 02:56:24;;;;;;;6.27;1.93;;;;;;;-2.52;70.84;101125.41;1785026;79;20943;-52
2022/02/28 02:58:50;;;;;;;5.87;2.10;;;;;;;-2.52;70.86;101126.72;1781404;79;21458;-51
2022/02/28 03:01:16;;;;;;;8.80;2.87;;;;;;;-2.50;70.96;101122.39;1782354;79;21085;-53
2022/02/28 03:03:43;;;;;;;6.27;2.30;;;;;;;-2.47;71.05;101121.59;1779979;79;21483;-51
2022/02/28 03:06:09;;;;;;;6.90;1.97;;;;;;;-2.46;71.11;101124.23;1783852;79;21109;-53
2022/02/28 03:08:37;;;;;;;8.57;2.47;;;;;;;-2.45;71.12;101127.77;1782093;79;22233;-51
2022/02/28 03:11:03;;;;;;;8.53;2.40;;;;;;;-2.48;71.17;101130.34;1780084;79;21131;-51
2022/02/28 03:13:31;;;;;;;5.50;1.90;;;;;;;-2.49;71.21;101124.60;1782442;79;21069;-52
2022/02/28 03:15:58;;;;;;;8.07;2.63;;;;;;;-2.49;71.41;101121.97;1780315;79;21057;-52
2022/02/28 03:18:27;;;;;;;5.67;2.10;;;;;;;-2.49;71.44;101125.92;1785612;79;20938;-52
2022/02/28 03:20:53;;;;;;;6.53;2.00;;;;;;;-2.50;71.41;101126.34;1781503;79;21056;-52
2022/02/28 03:23:20;;;;;;;8.50;2.67;;;;;;;-2.53;71.30;101127.99;1780719;79;21707;-52
2022/02/28 03:25:48;;;;;;;7.40;2.03;;;;;;;-2.57;71.40;101126.14;1778353;79;21073;-52
2022/02/28 03:28:15;;;;;;;8.97;2.70;;;;;;;-2.57;71.54;101131.42;1777859;79;21025;-52
2022/02/28 03:30:41;;;;;;;9.80;2.60;;;;;;;-2.59;71.66;101118.19;1804752;78;21029;-52
2022/02/28 03:33:09;;;;;;;4.17;1.67;;;;;;;-2.58;71.71;101119.09;1743564;80;21144;-52
2022/02/28 03:35:37;;;;;;;6.30;2.17;;;;;;;-2.57;71.67;101127.04;1809871;78;21127;-53
2022/02/28 03:38:04;;;;;;;8.10;2.93;;;;;;;-2.57;71.74;101123.09;1777949;79;21403;-52
2022/02/28 03:40:31;;;;;;;6.03;2.53;;;;;;;-2.56;71.74;101125.30;1810791;78;21466;-52
2022/02/28 03:43:00;;;;;;;6.33;2.27;;;;;;;-2.57;71.75;101117.81;1786291;78;21464;-51
2022/02/28 03:45:27;;;;;;;5.63;2.23;;;;;;;-2.57;71.71;101119.13;1808295;78;21005;-51
2022/02/28 03:47:54;;;;;;;6.37;2.63;;;;;;;-2.58;71.75;101120.41;1812647;78;21093;-53
2022/02/28 03:50:25;;;;;;;8.63;2.10;;;;;;;-2.57;71.87;101118.23;1757272;78;20965;-53
2022/02/28 03:52:52;;;;;;;6.57;2.13;;;;;;;-2.57;71.85;101116.50;1790538;78;20946;-52
2022/02/28 03:55:29;;;;;;;6.00;2.97;;;;;;;-2.59;71.93;101118.19;1782218;78;21922;-52
2022/02/28 03:57:55;;;;;;;6.93;2.40;;;;;;;-2.59;72.05;101114.23;1809058;78;20945;-51
2022/02/28 04:00:24;;;;;;;4.53;1.93;;;;;;;-2.59;72.11;101115.55;1809917;78;22150;-51
2022/02/28 04:02:50;;;;;;;5.70;2.37;;;;;;;-2.58;72.24;101128.31;1777308;80;21385;-52
2022/02/28 04:05:17;;;;;;;6.07;1.87;;;;;;;-2.57;72.19;101127.04;1788409;78;20930;-52
2022/02/28 04:07:44;;;;;;;4.43;1.67;;;;;;;-2.56;72.20;101127.52;1792879;78;20950;-52
2022/02/28 04:10:11;;;;;;;7.77;2.57;;;;;;;-2.58;72.31;101130.95;1789960;78;20938;-52
2022/02/28 04:12:40;;;;;;;6.57;1.93;;;;;;;-2.59;72.41;101132.69;1811144;78;20893;-52
2022/02/28 04:15:07;;;;;;;5.70;2.07;;;;;;;-2.58;72.46;101138.44;1811917;78;21473;-52
2022/02/28 04:17:33;;;;;;;5.00;1.60;;;;;;;-2.59;72.38;101140.59;1808635;78;20953;-53
2022/02/28 04:20:18;;;;;;;5.78;1.98;;;;;;;-2.60;72.54;101140.12;1813022;78;21504;-51
2022/02/28 04:22:45;;;;;;;4.10;1.77;;;;;;;-2.60;72.62;101138.81;1810128;78;21042;-52
2022/02/28 04:25:12;;;;;;;4.10;1.60;;;;;;;-2.59;72.50;101145.87;1810871;78;21107;-52
2022/02/28 04:27:40;;;;;;;4.37;1.57;;;;;;;-2.57;73.02;101152.08;1780348;78;21093;-52
2022/02/28 04:30:09;;;;;;;4.17;1.43;;;;;;;-2.57;72.96;101148.55;1789599;78;21042;-52
2022/02/28 04:32:36;;;;;;;4.47;1.60;;;;;;;-2.57;72.76;101154.72;1786072;78;21053;-54
2022/02/28 04:35:05;;;;;;;3.27;1.57;;;;;;;-2.59;72.74;101156.41;1772967;79;21141;-53
2022/02/28 04:37:33;;;;;;;4.07;1.50;;;;;;;-2.59;72.79;101159.47;1750091;80;22275;-51
2022/02/28 04:40:01;;;;;;;5.60;1.50;;;;;;;-2.60;72.75;101163.85;1781196;78;21748;-53
2022/02/28 04:42:29;;;;;;;6.20;1.93;;;;;;;-2.59;72.82;101155.52;1772774;80;21452;-52
2022/02/28 04:44:56;;;;;;;3.70;1.40;;;;;;;-2.58;72.91;101162.16;1770270;80;21022;-52
2022/02/28 04:47:23;;;;;;;3.87;1.23;;;;;;;-2.59;72.83;101154.20;1768695;80;21145;-53
2022/02/28 04:49:55;;;;;;;5.20;1.07;;;;;;;-2.57;72.88;101157.78;1775451;80;21134;-53
2022/02/28 04:52:21;;;;;;;4.47;1.17;;;;;;;-2.55;73.10;101163.53;1774881;80;21065;-53
2022/02/28 04:54:48;;;;;;;4.00;1.33;;;;;;;-2.54;73.12;101162.69;1753039;81;21523;-52
2022/02/28 04:57:15;;;;;;;5.37;1.60;;;;;;;-2.52;72.94;101162.73;1786587;80;21412;-53
2022/02/28 04:59:41;;;;;;;3.77;1.00;;;;;;;-2.54;72.73;101170.59;1771902;80;21088;-53
2022/02/28 05:02:09;;;;;;;5.27;1.67;;;;;;;-2.56;73.15;101167.05;1772452;80;21470;-52
2022/02/28 05:04:43;;;;;;;5.28;1.82;;;;;;;-2.54;73.66;101170.59;1779219;79;21037;-52
2022/02/28 05:07:10;;;;;;;3.50;1.10;;;;;;;-2.50;73.66;101175.55;1783824;79;21096;-53
2022/02/28 05:09:36;;;;;;;4.10;1.37;;;;;;;-2.48;73.62;101173.84;1780384;80;21081;-53
2022/02/28 05:12:04;;;;;;;2.80;1.00;;;;;;;-2.45;73.94;101181.81;1789513;78;20910;-52
2022/02/28 05:14:31;;;;;;;3.90;0.93;;;;;;;-2.37;74.22;101180.27;1772508;80;21150;-53
2022/02/28 05:16:58;;;;;;;4.03;0.90;;;;;;;-2.30;74.31;101182.25;1772479;80;21054;-52
2022/02/28 05:19:25;;;;;;;3.70;0.90;;;;;;;-2.25;74.48;101177.97;1785585;78;21061;-53
2022/02/28 05:21:52;;;;;;;2.13;0.93;;;;;;;-2.19;74.81;101174.59;1784698;78;21425;-53
2022/02/28 05:24:18;;;;;;;4.97;1.10;;;;;;;-2.13;74.82;101176.09;1772899;79;21041;-52
2022/02/28 05:26:46;;;;;;;3.67;1.17;;;;;;;-2.11;74.83;101172.61;1753041;80;20965;-52
2022/02/28 05:29:15;;;;;;;1.63;1.20;;;;;;;-2.06;74.89;101180.66;1772757;80;21282;-54
2022/02/28 05:31:42;;;;;;;2.03;1.00;;;;;;;-2.04;75.32;101171.91;1745422;80;21100;-53
2022/02/28 05:34:26;;;;;;;;;;;;;;;-1.98;75.45;101181.31;1771151;80;21064;-53
2022/02/28 05:36:53;;;;;;;1.50;0.70;;;;;;;-1.90;75.50;101181.50;1771817;80;20763;-53
2022/02/28 05:39:39;;;;;;;5.10;0.73;;;;;;;-1.87;75.65;101175.42;1768862;80;21216;-52
2022/02/28 05:42:06;;;;;;;1.17;0.70;;;;;;;-1.80;75.81;101177.34;1769271;80;21340;-53
2022/02/28 05:44:33;;;;;;;1.60;0.77;;;;;;;-1.73;75.82;101184.55;1773755;80;21080;-53
2022/02/28 05:47:00;;;;;;;1.80;0.57;;;;;;;-1.64;75.73;101179.06;1752333;81;21538;-54
2022/02/28 05:49:28;;;;;;;3.73;0.70;;;;;;;-1.54;75.61;101182.39;1773696;80;21669;-53
2022/02/28 05:51:54;;;;;;;3.13;0.80;;;;;;;-1.42;75.47;101184.39;1767850;80;21141;-53
2022/02/28 05:54:21;;;;;;;3.83;0.80;;;;;;;-1.33;75.03;101189.89;1770135;80;21111;-51
2022/02/28 05:56:47;;;;;;;6.43;1.63;;;;;;;-1.27;74.95;101182.52;1770671;80;21557;-53
2022/02/28 05:59:13;;;;;;;5.53;1.73;;;;;;;-1.21;74.91;101180.93;1769765;80;21080;-52
2022/02/28 06:01:40;;;;;;;4.30;1.20;;;;;;;-1.12;74.57;101184.20;1768990;80;21103;-53
2022/02/28 06:04:06;;;;;;;4.17;1.30;;;;;;;-1.03;74.25;101184.83;1769934;80;21464;-53
2022/02/28 06:06:33;;;;;;;8.77;1.87;;;;;;;-0.99;73.85;101185.34;1770801;80;21034;-52
2022/02/28 06:09:03;;;;;;;7.83;2.43;;;;;;;-0.95;73.03;101192.48;1774078;79;21104;-52
2022/02/28 06:11:29;;;;;;;6.53;1.80;;;;;;;-0.95;72.95;101197.34;1772197;79;21026;-52
2022/02/28 06:13:56;;;;;;;3.47;1.10;;;;;;;-0.94;72.73;101192.95;1747317;81;21025;-53
2022/02/28 06:16:22;;;;;;;3.70;1.13;;;;;;;-0.91;72.56;101200.50;1779720;80;21981;-53
2022/02/28 06:18:49;;;;;;;3.73;1.37;;;;;;;-0.88;71.92;101201.00;1771797;79;21507;-52
2022/02/28 06:21:17;;;;;;;3.00;0.70;;;;;;;-0.87;71.26;101198.39;1778651;78;21033;-53
2022/02/28 06:23:43;;;;;;;2.00;0.50;;;;;;;-0.83;71.25;101205.94;1786455;79;21049;-53
2022/02/28 06:26:10;;;;;;;2.33;0.60;;;;;;;-0.80;70.56;101208.66;1770994;80;21046;-53
2022/02/28 06:28:37;;;;;;;4.27;1.33;;;;;;;-0.80;69.92;101206.91;1751118;80;21154;-52
2022/02/28 06:31:03;;;;;;;2.53;0.70;;;;;;;-0.79;69.77;101205.16;1772277;80;21073;-52
2022/02/28 06:33:30;;;;;;;1.00;0.50;;;;;;;-0.74;69.45;101204.81;1771106;79;21151;-51
2022/02/28 06:35:57;;;;;;;1.70;0.50;;;;;;;-0.72;69.02;101201.77;1764485;78;21069;-51
2022/02/28 06:38:25;;;;;;;1.10;0.47;;;;;;;-0.71;68.24;101202.23;1794182;78;21044;-51
2022/02/28 06:40:52;;;;;;;1.23;0.50;;;;;;;-0.69;68.62;101199.63;1807820;78;21802;-51
2022/02/28 06:43:24;;;;;;;0.80;0.40;;;;;;;-0.65;67.78;101205.42;1779495;79;20871;-51
2022/02/28 06:45:52;;;;;;;1.97;0.40;;;;;;;-0.60;66.45;101199.81;1798357;79;20937;-52
2022/02/28 06:48:18;;;;;;;1.07;0.40;;;;;;;-0.61;65.85;101204.64;1776056;79;20922;-52
2022/02/28 06:50:45;;;;;;;0.70;0.40;;;;;;;-0.63;65.36;101207.67;1792562;79;21013;-52
2022/02/28 06:53:12;;;;;;;1.40;0.50;;;;;;;-0.61;65.10;101212.14;1798150;78;21781;-52
2022/02/28 06:55:43;;;;;;;1.60;0.40;;;;;;;-0.58;64.68;101214.83;1791693;78;21465;-51
2022/02/28 06:58:09;;;;;;;0.97;0.37;;;;;;;-0.57;64.40;101204.72;1813430;78;20922;-52
2022/02/28 07:00:36;;;;;;;0.80;0.40;;;;;;;-0.53;64.08;101222.45;1811478;78;21382;-52
2022/02/28 07:03:11;;;;;;;1.52;0.40;;;;;;;-0.53;63.29;101215.83;1773159;78;26161;-52
2022/02/28 07:05:39;;;;;;;1.67;0.40;;;;;;;-0.49;63.11;101207.08;1811652;78;21065;-52
2022/02/28 07:08:08;;;;;;;1.80;0.40;;;;;;;-0.46;62.53;101230.06;1785654;78;21452;-51
2022/02/28 07:10:34;;;;;;;1.97;0.40;;;;;;;-0.45;61.69;101221.27;1788472;78;20921;-51
2022/02/28 07:13:01;;;;;;;0.70;0.40;;;;;;;-0.43;61.85;101215.58;1787885;78;20904;-52
2022/02/28 07:15:28;;;;;;;0.53;0.30;;;;;;;-0.44;60.95;101217.77;1812758;78;20967;-52
2022/02/28 07:17:55;;;;;;;0.70;0.40;;;;;;;-0.44;61.27;101223.95;1811418;78;21781;-52
2022/02/28 07:20:22;;;;;;;0.50;0.30;;;;;;;-0.43;61.04;101222.20;1815786;77;20923;-53
2022/02/28 07:22:48;;;;;;;0.97;0.40;;;;;;;-0.40;61.24;101223.56;1784665;78;20903;-53
2022/02/28 07:25:14;;;;;;;1.20;0.60;;;;;;;-0.35;61.19;101219.70;1813265;78;21329;-54
2022/02/28 07:27:41;;;;;;;2.40;0.60;;;;;;;-0.28;60.69;101220.27;1787885;78;21429;-54
2022/02/28 07:30:09;;;;;;;0.87;0.40;;;;;;;-0.23;60.87;101220.80;1795229;79;21087;-54
2022/02/28 07:32:36;;;;;;;0.90;0.50;;;;;;;-0.20;59.42;101222.63;1787182;79;22190;-54
2022/02/28 07:35:04;;;;;;;1.07;0.30;;;;;;;-0.15;60.07;101216.97;1808949;78;21084;-53
2022/02/28 07:37:33;;;;;;;1.33;0.40;;;;;;;-0.13;59.06;101216.14;1799211;78;21281;-53
2022/02/28 07:39:59;;;;;;;0.87;0.40;;;;;;;-0.10;59.00;101220.61;1799679;78;21275;-53
2022/02/28 07:42:25;;;;;;;1.43;0.43;;;;;;;-0.07;58.84;101216.67;1798199;78;22051;-55
2022/02/28 07:44:52;;;;;;;0.77;0.40;;;;;;;-0.02;59.04;101213.70;1801818;78;21017;-54
2022/02/28 07:47:18;;;;;;;3.07;1.73;;;;;;;0.07;58.88;101215.61;1800997;78;21026;-54
2022/02/28 07:49:45;;;;;;;3.47;0.50;;;;;;;0.14;57.77;101221.47;1799756;78;21073;-55
2022/02/28 07:52:11;;;;;;;1.13;0.50;;;;;;;0.18;57.64;101208.72;1803368;78;21093;-56
2022/02/28 07:54:38;;;;;;;1.47;0.40;;;;;;;0.21;57.13;101219.38;1802562;78;21689;-56
2022/02/28 07:57:05;;;;;;;1.00;0.40;;;;;;;0.20;56.92;101221.56;1804587;78;21123;-56
2022/02/28 07:59:31;;;;;;;3.47;0.93;;;;;;;0.23;57.51;101218.98;1801259;78;21102;-56
2022/02/28 08:01:57;;;;;;;0.90;0.40;;;;;;;0.30;57.22;101231.02;1803671;78;21061;-56
2022/02/28 08:04:23;;;;;;;1.33;0.50;;;;;;;0.36;57.34;101221.84;1772536;78;21046;-54
2022/02/28 08:06:51;;;;;;;1.77;0.50;;;;;;;0.45;57.48;101226.83;1804951;78;21256;-54
2022/02/28 08:09:19;;;;;;;0.80;0.40;;;;;;;0.54;57.11;101221.67;1774332;79;21120;-56
2022/02/28 08:11:46;;;;;;;1.87;0.40;;;;;;;0.61;56.65;101227.52;1784141;78;21605;-54
2022/02/28 08:14:12;;;;;;;0.67;0.47;;;;;;;0.68;55.97;101222.33;1803120;78;21140;-54
2022/02/28 08:16:38;;;;;;;2.13;0.50;;;;;;;0.73;55.93;101219.77;1804173;78;21037;-54
2022/02/28 08:19:04;;;;;;;2.53;0.40;;;;;;;0.81;55.97;101218.55;1802404;78;21100;-54
2022/02/28 08:21:31;;;;;;;1.33;0.50;;;;;;;0.85;55.07;101215.95;1781717;78;21092;-54
2022/02/28 08:23:57;;;;;;;1.63;0.50;;;;;;;0.85;54.83;101214.62;1765282;79;21009;-54
2022/02/28 08:26:23;;;;;;;3.80;0.40;;;;;;;0.88;55.01;101212.46;1775128;79;21473;-55
2022/02/28 08:28:50;;;;;;;0.60;0.40;;;;;;;0.93;54.90;101209.03;1797549;78;21080;-54
2022/02/28 08:31:16;;;;;;;0.90;0.50;;;;;;;0.99;54.87;101206.45;1803139;77;21612;-55
2022/02/28 08:33:43;;;;;;;0.90;0.50;;;;;;;1.08;54.68;101205.25;1802845;78;21121;-54
2022/02/28 08:36:09;;;;;;;1.57;0.40;;;;;;;1.14;54.06;101200.45;1803379;78;21531;-57
2022/02/28 08:38:35;;;;;;;0.80;0.43;;;;;;;1.17;53.76;101207.56;1797579;78;21049;-57
2022/02/28 08:41:02;;;;;;;1.13;0.40;;;;;;;1.23;54.00;101195.70;1800636;78;21113;-57
2022/02/28 08:43:29;;;;;;;0.70;0.40;;;;;;;1.25;53.35;101208.55;1799900;77;21064;-55
2022/02/28 08:45:55;;;;;;;1.63;0.37;;;;;;;1.26;53.21;101205.92;1773783;78;21131;-55
2022/02/28 08:51:12;;;;;;;0.87;0.43;;;;;;;1.28;53.28;101201.94;1865410;75;27086;-57
2022/02/28 08:53:39;;;;;;;1.57;0.60;;;;;;;1.27;53.09;101201.08;1838003;77;21079;-54
2022/02/28 08:56:06;;;;;;;0.87;0.40;;;;;;;1.33;53.25;101207.77;1843218;77;21944;-55
2022/02/28 08:58:33;;;;;;;2.10;0.50;;;;;;;1.38;53.06;101199.86;1843110;77;20930;-54
2022/02/28 09:00:59;;;;;;;1.33;0.50;;;;;;;1.41;53.09;101198.14;1839455;77;20953;-54
2022/02/28 09:03:26;;;;;;;0.60;0.40;;;;;;;1.45;52.94;101201.70;1840250;77;21328;-55
2022/02/28 09:05:52;;;;;;;1.20;0.40;;;;;;;1.48;53.11;101199.09;1801829;78;21483;-55
2022/02/28 09:08:18;;;;;;;3.07;0.50;;;;;;;1.52;52.36;101196.95;1775659;78;21072;-55
2022/02/28 09:10:46;;;;;;;1.57;0.40;;;;;;;1.53;52.45;101195.61;1767297;78;21558;-55
2022/02/28 09:13:12;;;;;;;3.80;0.50;;;;;;;1.58;52.31;101202.31;1755668;79;21499;-55
2022/02/28 09:15:38;;;;;;;4.83;0.40;;;;;;;1.59;52.04;101202.77;1775341;79;21041;-57
2022/02/28 09:18:08;;;;;;;0.77;0.47;;;;;;;1.62;51.82;101201.45;1775485;79;21053;-55
2022/02/28 09:20:36;;;;;;;0.80;0.40;;;;;;;1.62;51.41;101202.78;1772027;79;21117;-59
2022/02/28 09:23:02;;;;;;;4.83;0.60;;;;;;;1.64;51.67;101202.38;1774094;80;21040;-57
2022/02/28 09:25:28;;;;;;;0.40;0.20;;;;;;;1.66;51.67;101196.66;1773578;79;21096;-55
2022/02/28 09:27:55;;;;;;;1.40;0.50;;;;;;;1.73;51.87;101193.62;1775842;79;21052;-58
2022/02/28 09:30:21;;;;;;;0.50;0.40;;;;;;;1.82;51.70;101188.41;1773972;79;21084;-55
2022/02/28 09:32:51;;;;;;;0.90;0.40;;;;;;;1.89;51.49;101187.58;1771415;79;22824;-55
2022/02/28 09:35:17;;;;;;;1.87;0.37;;;;;;;1.94;50.75;101183.66;1771217;79;21128;-55
2022/02/28 09:37:43;;;;;;;0.83;0.50;;;;;;;1.97;51.10;101184.55;1776209;79;21008;-58
2022/02/28 09:40:11;;;;;;;0.80;0.50;;;;;;;2.04;51.08;101173.11;1774438;79;21499;-56
2022/02/28 09:42:38;;;;;;;1.07;0.50;;;;;;;2.13;50.92;101174.95;1799277;78;20930;-56
2022/02/28 09:45:23;;;;;;;2.70;0.40;;;;;;;2.20;50.53;101168.84;1775612;79;21735;-56
2022/02/28 09:48:09;;;;;;;1.20;0.40;;;;;;;2.24;50.53;101170.19;1789642;78;20945;-56
2022/02/28 09:50:43;;;;;;;0.93;0.40;;;;;;;2.27;50.24;101163.59;1760019;78;21361;-56
2022/02/28 09:53:14;;;;;;;1.00;0.40;;;;;;;2.30;49.90;101165.83;1761835;79;21391;-56
2022/02/28 09:55:42;;;;;;;1.27;0.47;;;;;;;2.34;49.97;101160.97;1769677;78;21299;-56
2022/02/28 09:58:13;;;;;;;0.90;0.60;;;;;;;2.37;49.73;101159.67;1809265;77;21804;-56
2022/02/28 10:00:46;;;;;;;2.00;0.40;;;;;;;2.42;48.91;101173.44;1810384;78;20942;-56
2022/02/28 10:03:12;;;;;;;0.50;0.40;;;;;;;2.43;49.43;101155.28;1810059;78;21727;-56
2022/02/28 10:05:39;;;;;;;1.03;0.40;;;;;;;2.48;49.35;101155.30;1780791;78;20956;-56
2022/02/28 10:08:06;;;;;;;1.33;0.40;;;;;;;2.50;48.79;101147.80;1811578;78;21373;-57
2022/02/28 10:10:34;;;;;;;2.37;0.50;;;;;;;2.51;49.04;101154.89;1778976;78;21646;-56
2022/02/28 10:13:01;;;;;;;1.53;0.50;;;;;;;2.52;49.50;101143.83;1777552;80;21448;-57
2022/02/28 10:15:28;;;;;;;0.87;0.40;;;;;;;2.58;49.07;101139.87;1791192;78;21418;-57
2022/02/28 10:18:04;;;;;;;0.80;0.40;;;;;;;2.64;49.13;101135.47;1811440;78;20878;-57
2022/02/28 10:20:37;;;;;;;2.40;0.50;;;;;;;2.71;49.14;101127.55;1809747;78;20967;-56
2022/02/28 10:23:11;;;;;;;1.30;0.47;;;;;;;2.77;49.22;101118.27;1808081;78;21765;-56
2022/02/28 10:25:45;;;;;;;1.27;0.50;;;;;;;2.82;48.71;101126.70;1782458;78;20887;-56
2022/02/28 10:28:25;;;;;;;1.00;0.50;;;;;;;2.84;48.32;101126.28;1777975;79;21123;-56
2022/02/28 10:31:06;;;;;;;1.33;0.50;;;;;;;2.86;48.30;101116.98;1795063;78;21452;-59
2022/02/28 10:33:50;;;;;;;1.37;0.50;;;;;;;2.85;47.94;101118.75;1789214;78;21065;-58
2022/02/28 10:36:28;;;;;;;1.30;0.60;;;;;;;2.85;47.73;101127.17;1706978;83;21535;-57
2022/02/28 10:38:57;;;;;;;0.70;0.50;;;;;;;2.84;47.97;101119.62;1779527;79;21091;-57
2022/02/28 10:41:27;;;;;;;1.40;0.50;;;;;;;2.85;48.32;101114.77;1784878;78;21099;-58
2022/02/28 10:43:57;;;;;;;1.77;0.63;;;;;;;2.87;48.14;101120.09;1778017;78;21018;-58
2022/02/28 10:46:29;;;;;;;0.80;0.40;;;;;;;2.88;48.28;101113.90;1809644;78;21399;-59
2022/02/28 10:49:15;;;;;;;1.00;0.50;;;;;;;2.89;47.63;101112.55;1814217;78;21103;-58
2022/02/28 10:51:57;;;;;;;1.30;0.40;;;;;;;2.94;47.29;101101.51;1803412;78;21041;-58
2022/02/28 10:54:38;;;;;;;;;;;;;;;3.03;47.49;101105.53;1812185;78;21322;-57
2022/02/28 10:57:07;;;;;;;1.50;0.40;;;;;;;3.13;46.74;101109.13;1801245;78;20228;-57
2022/02/28 10:59:51;;;;;;;1.00;0.40;;;;;;;3.14;47.13;101104.25;1799127;78;21482;-57
2022/02/28 11:02:35;;;;;;;2.30;0.40;;;;;;;3.18;46.49;101095.38;1783185;78;21152;-57
2022/02/28 11:05:12;;;;;;;2.08;0.40;;;;;;;3.23;46.77;101092.75;1805616;78;21539;-58
2022/02/28 11:07:49;;;;;;;2.73;0.30;;;;;;;3.31;46.59;101102.53;1773542;78;21535;-58
2022/02/28 11:10:17;;;;;;;1.00;0.30;;;;;;;3.35;46.38;101087.44;1777520;78;21450;-57
2022/02/28 11:12:45;;;;;;;4.50;0.80;;;;;;;3.39;46.36;101093.23;1780165;78;20972;-57
2022/02/28 11:15:16;;;;;;;0.87;0.40;;;;;;;3.42;45.83;101087.89;1775046;78;20914;-58
2022/02/28 11:17:46;;;;;;;1.07;0.37;;;;;;;3.42;45.94;101075.91;1780985;78;21648;-57
2022/02/28 11:20:15;;;;;;;0.53;0.30;;;;;;;3.44;46.12;101079.47;1775476;78;21018;-56
2022/02/28 11:22:44;;;;;;;0.50;0.30;;;;;;;3.47;45.79;101083.48;1803448;78;20902;-57
2022/02/28 11:25:14;;;;;;;0.70;0.30;;;;;;;3.50;45.14;101097.22;1803055;78;21072;-57
2022/02/28 11:27:41;;;;;;;0.70;0.40;;;;;;;3.52;45.19;101084.80;1802334;78;23390;-58
2022/02/28 11:30:17;;;;;;;1.33;0.30;;;;;;;3.52;44.79;101095.02;1773100;80;20904;-58
2022/02/28 11:32:44;;;;;;;0.83;0.30;;;;;;;3.54;44.79;101103.90;1770955;78;20936;-58
2022/02/28 11:35:43;;;;;;;0.70;0.20;;;;;;;3.55;44.47;101104.34;1783856;78;21487;-60
2022/02/28 11:38:25;;;;;;;0.33;0.20;;;;;;;3.57;44.88;101090.60;1803705;77;20993;-57